Time;durP1;ratioP1;P1;durP2;ratioP2;P2;SDS_P1;SDS_P2;PMS_P1;PMS_P2;Temp;Humidity;BMP_temperature;BMP_pressure;BME280_temperature;BME280_humidity;BME280_pressure;Samples;Min_cycle;Max_cycle;Signal;HPM_P1;HPM_P2
2024/01/12 00:02:19;;;;;;;46.58;26.20;;;;;;;-7.73;100.00;98559.72;4983329;28;20428;-78
2024/01/12 00:04:45;;;;;;;42.67;24.47;;;;;;;-7.75;100.00;98559.03;4980618;28;20424;-79
2024/01/12 00:07:12;;;;;;;56.40;29.70;;;;;;;-7.76;100.00;98567.66;4981978;28;20397;-79
2024/01/12 00:09:38;;;;;;;50.60;26.73;;;;;;;-7.77;100.00;98565.19;4982402;28;20463;-80
2024/01/12 00:12:05;;;;;;;52.95;28.10;;;;;;;-7.78;100.00;98563.53;4980823;28;20415;-78
2024/01/12 00:14:31;;;;;;;50.35;26.95;;;;;;;-7.78;100.00;98563.53;4978918;28;20491;-81
2024/01/12 00:16:57;;;;;;;51.88;26.85;;;;;;;-7.79;100.00;98575.56;4979659;28;20506;-79
2024/01/12 00:19:23;;;;;;;47.10;25.23;;;;;;;-7.78;100.00;98568.69;4978962;28;20766;-81
2024/01/12 00:21:52;;;;;;;46.92;26.17;;;;;;;-7.79;100.00;98569.59;4980077;28;20490;-81
2024/01/12 00:24:20;;;;;;;47.28;25.92;;;;;;;-7.78;100.00;98568.69;4980982;28;20442;-81
2024/01/12 00:26:46;;;;;;;48.58;26.13;;;;;;;-7.77;100.00;98570.31;4979628;28;20439;-80
2024/01/12 00:29:12;;;;;;;50.13;27.05;;;;;;;-7.75;100.00;98568.47;4978957;28;20491;-79
2024/01/12 00:31:38;;;;;;;49.72;26.20;;;;;;;-7.76;100.00;98570.22;4979903;28;20404;-80
2024/01/12 00:34:04;;;;;;;44.63;25.37;;;;;;;-7.76;100.00;98574.53;4979894;28;20494;-79
2024/01/12 00:36:31;;;;;;;51.55;28.63;;;;;;;-7.78;100.00;98569.50;4980060;28;20400;-81
2024/01/12 00:38:57;;;;;;;49.20;26.80;;;;;;;-7.81;100.00;98565.38;4979576;28;20408;-81
2024/01/12 00:41:24;;;;;;;47.90;26.33;;;;;;;-7.82;100.00;98561.16;4979558;28;20915;-80
2024/01/12 00:43:50;;;;;;;45.60;25.00;;;;;;;-7.83;100.00;98563.88;4991273;28;20508;-79
2024/01/12 00:46:17;;;;;;;43.22;23.70;;;;;;;-7.83;100.00;98571.59;4991661;28;20427;-79
2024/01/12 00:48:43;;;;;;;43.00;24.58;;;;;;;-7.85;100.00;98568.28;4983736;28;20788;-80
2024/01/12 00:51:11;;;;;;;42.75;23.30;;;;;;;-7.85;100.00;98569.13;4979051;28;20404;-79
2024/01/12 00:53:37;;;;;;;40.70;22.58;;;;;;;-7.84;100.00;98582.78;4977970;28;20403;-79
2024/01/12 00:56:04;;;;;;;44.35;23.77;;;;;;;-7.87;100.00;98570.97;4977850;28;20412;-79
2024/01/12 00:58:31;;;;;;;45.58;24.60;;;;;;;-7.88;100.00;98568.50;4977955;28;20525;-79
2024/01/12 01:00:57;;;;;;;48.92;26.15;;;;;;;-7.88;100.00;98569.31;4978172;28;21213;-79
2024/01/12 01:03:23;;;;;;;45.10;24.85;;;;;;;-7.88;100.00;98565.91;4978636;28;20407;-79
2024/01/12 01:05:50;;;;;;;46.92;25.10;;;;;;;-7.89;100.00;98570.25;4978523;28;20576;-79
2024/01/12 01:08:16;;;;;;;46.33;25.00;;;;;;;-7.90;100.00;98571.19;4978794;28;20406;-79
2024/01/12 01:10:43;;;;;;;43.58;24.30;;;;;;;-7.89;100.00;98572.00;4978502;28;20408;-80
2024/01/12 01:13:09;;;;;;;42.78;23.02;;;;;;;-7.90;100.00;98575.50;4980762;28;20411;-78
2024/01/12 01:15:37;;;;;;;43.63;23.40;;;;;;;-7.93;100.00;98576.53;4978128;28;20515;-78
2024/01/12 01:18:03;;;;;;;41.30;23.35;;;;;;;-7.94;100.00;98584.34;4979586;28;20482;-78
2024/01/12 01:20:31;;;;;;;42.47;23.73;;;;;;;-7.96;100.00;98581.03;4977498;28;20814;-80
2024/01/12 01:22:57;;;;;;;43.28;23.38;;;;;;;-7.96;100.00;98588.75;4978794;28;20408;-80
2024/01/12 01:25:23;;;;;;;41.50;23.02;;;;;;;-7.98;100.00;98586.31;4978527;28;20922;-80
2024/01/12 01:27:49;;;;;;;45.08;24.60;;;;;;;-8.00;100.00;98582.19;4978590;28;20443;-79
2024/01/12 01:30:16;;;;;;;42.50;22.48;;;;;;;-8.01;100.00;98585.69;4978887;28;20407;-80
2024/01/12 01:32:43;;;;;;;43.17;23.25;;;;;;;-8.01;100.00;98588.25;4978627;28;20400;-80
2024/01/12 01:35:09;;;;;;;38.47;21.30;;;;;;;-8.03;100.00;98590.94;4979086;28;20401;-80
2024/01/12 01:37:35;;;;;;;36.60;21.27;;;;;;;-8.04;100.00;98591.84;4978809;28;20452;-80
2024/01/12 01:40:05;;;;;;;40.00;22.33;;;;;;;-8.05;100.00;98599.69;4981855;28;20407;-80
2024/01/12 01:42:31;;;;;;;43.88;23.52;;;;;;;-8.08;100.00;98593.00;4985425;28;20496;-80
2024/01/12 01:44:57;;;;;;;42.53;23.05;;;;;;;-8.09;100.00;98600.81;4985008;28;20396;-78
2024/01/12 01:47:23;;;;;;;40.67;22.38;;;;;;;-8.09;100.00;98598.25;4978367;28;20794;-80
2024/01/12 01:49:51;;;;;;;37.40;21.63;;;;;;;-8.09;100.00;98595.66;4978980;28;20428;-80
2024/01/12 01:52:18;;;;;;;35.60;20.58;;;;;;;-8.10;100.00;98597.41;4978412;28;20490;-80
2024/01/12 01:54:44;;;;;;;40.00;21.88;;;;;;;-8.10;100.00;98596.59;4977685;28;20392;-78
2024/01/12 01:57:11;;;;;;;37.15;21.02;;;;;;;-8.10;100.00;98596.59;4977893;28;20801;-80
2024/01/12 01:59:39;;;;;;;41.72;22.05;;;;;;;-8.12;100.00;98591.59;4984756;28;20423;-80
2024/01/12 02:02:06;;;;;;;42.40;22.33;;;;;;;-8.11;100.00;98587.25;4978183;28;20472;-81
2024/01/12 02:04:32;;;;;;;42.75;23.02;;;;;;;-8.12;100.00;98593.31;4977621;28;20435;-81
2024/01/12 02:07:00;;;;;;;43.43;23.30;;;;;;;-8.14;100.00;98588.28;4987563;28;20491;-81
2024/01/12 02:09:28;;;;;;;43.83;22.90;;;;;;;-8.14;100.00;98593.44;4990758;28;20453;-81
2024/01/12 02:11:54;;;;;;;41.78;22.63;;;;;;;-8.14;100.00;98590.03;4980817;28;20750;-80
2024/01/12 02:14:20;;;;;;;41.70;23.15;;;;;;;-8.14;100.00;98590.84;4976955;28;20416;-80
2024/01/12 02:16:47;;;;;;;43.90;22.67;;;;;;;-8.13;100.00;98596.81;4977217;28;20442;-81
2024/01/12 02:19:13;;;;;;;43.77;23.23;;;;;;;-8.13;100.00;98592.50;4980378;28;20418;-80
2024/01/12 02:21:40;;;;;;;42.17;22.88;;;;;;;-8.13;100.00;98587.38;4979043;28;20435;-80
2024/01/12 02:24:07;;;;;;;46.08;24.10;;;;;;;-8.13;100.00;98589.94;4981768;28;20433;-80
2024/01/12 02:26:33;;;;;;;45.17;23.95;;;;;;;-8.14;100.00;98596.00;4980349;28;20415;-80
2024/01/12 02:29:00;;;;;;;51.45;25.23;;;;;;;-8.17;100.00;98593.63;4977434;28;20484;-80
2024/01/12 02:31:26;;;;;;;45.20;24.40;;;;;;;-8.16;100.00;98589.31;4977298;28;20454;-80
2024/01/12 02:33:53;;;;;;;44.45;24.45;;;;;;;-8.18;100.00;98584.28;4976661;28;20444;-80
2024/01/12 02:36:19;;;;;;;46.85;24.55;;;;;;;-8.17;100.00;98579.97;4976467;28;20412;-79
2024/01/12 02:38:49;;;;;;;41.83;23.93;;;;;;;-8.17;100.00;98574.81;4976504;28;20544;-81
2024/01/12 02:41:16;;;;;;;41.45;23.15;;;;;;;-8.18;100.00;98570.59;4976619;28;20420;-80
2024/01/12 02:43:42;;;;;;;41.72;23.10;;;;;;;-8.18;100.00;98575.75;4976039;28;20400;-79
2024/01/12 02:46:08;;;;;;;45.57;25.33;;;;;;;-8.20;100.00;98570.75;4976775;28;20404;-79
2024/01/12 02:48:34;;;;;;;47.35;25.85;;;;;;;-8.20;100.00;98563.03;4976354;28;20876;-79
2024/01/12 02:51:00;;;;;;;49.63;26.65;;;;;;;-8.21;100.00;98558.81;4976598;28;20463;-80
2024/01/12 02:53:26;;;;;;;45.00;24.77;;;;;;;-8.22;100.00;98552.84;4976218;28;20904;-79
2024/01/12 02:55:54;;;;;;;47.17;24.73;;;;;;;-8.22;100.00;98563.13;4975730;28;20404;-79
2024/01/12 02:58:20;;;;;;;41.90;24.80;;;;;;;-8.23;100.00;98553.78;4976647;28;20404;-80
2024/01/12 03:00:46;;;;;;;41.85;23.48;;;;;;;-8.23;100.00;98558.09;4976248;28;20426;-80
2024/01/12 03:03:12;;;;;;;47.95;24.40;;;;;;;-8.24;100.00;98552.13;4981137;28;20441;-81
2024/01/12 03:05:38;;;;;;;45.78;24.95;;;;;;;-8.24;100.00;98552.13;4995003;28;20439;-81
2024/01/12 03:08:05;;;;;;;46.05;23.58;;;;;;;-8.25;100.00;98547.91;4995571;28;20398;-81
2024/01/12 03:10:31;;;;;;;40.33;22.52;;;;;;;-8.25;100.00;98552.22;4995607;28;20406;-81
2024/01/12 03:12:59;;;;;;;45.67;23.92;;;;;;;-8.25;100.00;98552.22;4995669;28;20403;-81
2024/01/12 03:15:25;;;;;;;42.53;23.55;;;;;;;-8.28;100.00;98555.84;4995525;28;20434;-80
2024/01/12 03:17:51;;;;;;;44.28;22.70;;;;;;;-8.28;100.00;98555.03;4995813;28;20402;-81
2024/01/12 03:20:17;;;;;;;40.10;22.60;;;;;;;-8.29;100.00;98558.50;4995721;28;20899;-81
2024/01/12 03:22:43;;;;;;;41.65;23.00;;;;;;;-8.30;100.00;98549.16;4997444;28;20429;-81
2024/01/12 03:25:09;;;;;;;39.85;22.35;;;;;;;-8.32;100.00;98554.44;4999804;28;20910;-81
2024/01/12 03:27:35;;;;;;;40.95;23.13;;;;;;;-8.32;100.00;98554.44;4999029;28;20398;-81
2024/01/12 03:30:04;;;;;;;41.40;22.95;;;;;;;-8.33;100.00;98547.66;4999050;28;20406;-81
2024/01/12 03:32:30;;;;;;;43.92;22.98;;;;;;;-8.33;100.00;98552.78;4999474;28;20430;-81
2024/01/12 03:34:56;;;;;;;43.53;23.20;;;;;;;-8.33;100.00;98551.97;4998636;28;20402;-81
2024/01/12 03:37:22;;;;;;;43.03;23.42;;;;;;;-8.36;100.00;98559.88;5016968;28;20442;-81
2024/01/12 03:39:48;;;;;;;41.22;22.65;;;;;;;-8.37;100.00;98559.06;5018866;28;20682;-80
2024/01/12 03:42:14;;;;;;;44.88;23.70;;;;;;;-8.38;100.00;98554.03;5019346;28;20425;-80
2024/01/12 03:44:41;;;;;;;42.45;22.58;;;;;;;-8.40;100.00;98558.44;5019038;28;20414;-80
2024/01/12 03:47:08;;;;;;;37.90;21.03;;;;;;;-8.41;100.00;98565.31;5019403;28;20406;-81
2024/01/12 03:49:34;;;;;;;39.10;20.95;;;;;;;-8.42;100.00;98565.44;5013261;28;20418;-80
2024/01/12 03:52:00;;;;;;;36.30;20.20;;;;;;;-8.45;100.00;98569.03;4999644;28;20413;-80
2024/01/12 03:54:27;;;;;;;38.03;19.45;;;;;;;-8.48;100.00;98566.66;4999929;28;20395;-81
2024/01/12 03:56:53;;;;;;;34.90;18.90;;;;;;;-8.50;100.00;98560.84;4999915;28;20410;-80
2024/01/12 03:59:19;;;;;;;37.80;20.67;;;;;;;-8.51;100.00;98569.44;4999081;28;20768;-81
2024/01/12 04:01:46;;;;;;;39.58;20.50;;;;;;;-8.54;100.00;98568.81;4999169;28;20480;-81
2024/01/12 04:04:14;;;;;;;35.10;18.83;;;;;;;-8.55;100.00;98574.88;4998864;28;20962;-81
2024/01/12 04:06:40;;;;;;;36.97;18.93;;;;;;;-8.56;100.00;98566.34;4998769;28;20426;-79
2024/01/12 04:09:09;;;;;;;35.58;19.42;;;;;;;-8.57;100.00;98562.16;4998132;28;20395;-79
2024/01/12 04:11:36;;;;;;;39.73;21.70;;;;;;;-8.59;100.00;98553.75;4999514;28;20407;-79
2024/01/12 04:14:03;;;;;;;45.53;22.50;;;;;;;-8.60;100.00;98557.22;4997228;28;20453;-81
2024/01/12 04:16:29;;;;;;;39.40;21.23;;;;;;;-8.61;100.00;98553.84;4997888;28;20403;-80
2024/01/12 04:18:55;;;;;;;39.67;20.30;;;;;;;-8.61;100.00;98553.00;4996692;28;20407;-79
2024/01/12 04:21:23;;;;;;;49.60;25.88;;;;;;;-8.64;100.00;98553.22;4997945;28;20431;-81
2024/01/12 04:23:49;;;;;;;42.92;22.70;;;;;;;-8.65;100.00;98552.41;4996956;28;20480;-80
2024/01/12 04:26:15;;;;;;;42.10;22.25;;;;;;;-8.68;100.00;98549.22;4997345;28;20486;-80
2024/01/12 04:28:41;;;;;;;41.28;21.58;;;;;;;-8.69;100.00;98562.97;4997512;28;20401;-81
2024/01/12 04:31:07;;;;;;;44.50;24.70;;;;;;;-8.71;100.00;98563.06;4997354;28;20417;-81
2024/01/12 04:33:34;;;;;;;48.28;24.45;;;;;;;-8.71;100.00;98557.09;4999979;28;20468;-80
2024/01/12 04:36:01;;;;;;;45.13;22.48;;;;;;;-8.73;100.00;98556.41;4998226;28;20406;-80
2024/01/12 04:38:29;;;;;;;44.58;21.63;;;;;;;-8.76;100.00;98566.88;5001056;28;20414;-81
2024/01/12 04:40:55;;;;;;;38.90;21.48;;;;;;;-8.76;100.00;98564.31;4998883;28;20481;-79
2024/01/12 04:43:21;;;;;;;38.60;20.00;;;;;;;-8.78;100.00;98574.66;4997677;28;20399;-81
2024/01/12 04:45:47;;;;;;;41.97;22.40;;;;;;;-8.79;100.00;98585.00;4997370;28;20445;-80
2024/01/12 04:48:14;;;;;;;39.20;20.73;;;;;;;-8.81;100.00;98581.75;4994199;28;20423;-81
2024/01/12 04:50:40;;;;;;;46.95;23.48;;;;;;;-8.82;100.00;98580.94;4993197;28;20418;-80
2024/01/12 04:53:06;;;;;;;40.42;21.73;;;;;;;-8.83;100.00;98589.53;4982240;28;20491;-79
2024/01/12 04:55:33;;;;;;;41.97;22.05;;;;;;;-8.83;100.00;98584.41;4979415;28;20483;-79
2024/01/12 04:58:00;;;;;;;44.20;22.85;;;;;;;-8.82;100.00;98598.06;4994745;28;20402;-79
2024/01/12 05:00:26;;;;;;;42.88;22.77;;;;;;;-8.83;100.00;98599.81;5008175;28;20418;-78
2024/01/12 05:02:52;;;;;;;41.35;22.40;;;;;;;-8.83;100.00;98596.41;5015559;28;20433;-78
2024/01/12 05:05:18;;;;;;;39.83;21.08;;;;;;;-8.84;100.00;98602.47;4996668;28;20406;-79
2024/01/12 05:07:44;;;;;;;45.53;23.20;;;;;;;-8.86;100.00;98610.25;4995371;28;20406;-77
2024/01/12 05:10:11;;;;;;;43.00;22.65;;;;;;;-8.86;100.00;98610.25;5010760;28;20418;-78
2024/01/12 05:12:38;;;;;;;44.33;22.98;;;;;;;-8.86;100.00;98617.13;4983871;28;20538;-77
2024/01/12 05:15:05;;;;;;;42.85;21.77;;;;;;;-8.87;100.00;98607.81;4982970;28;20400;-79
2024/01/12 05:17:32;;;;;;;41.05;22.05;;;;;;;-8.88;100.00;98606.16;4978489;28;20407;-78
2024/01/12 05:19:59;;;;;;;42.38;22.63;;;;;;;-8.88;100.00;98612.13;4977646;28;20885;-76
2024/01/12 05:22:26;;;;;;;44.03;23.33;;;;;;;-8.90;100.00;98613.97;4980330;28;20498;-78
2024/01/12 05:24:52;;;;;;;47.08;23.63;;;;;;;-8.93;100.00;98616.72;4984869;28;20418;-78
2024/01/12 05:27:18;;;;;;;47.42;24.73;;;;;;;-8.95;100.00;98618.56;4980685;28;20408;-79
2024/01/12 05:29:45;;;;;;;49.47;25.42;;;;;;;-8.97;100.00;98622.16;4981872;28;20462;-80
2024/01/12 05:32:11;;;;;;;45.75;24.70;;;;;;;-8.97;100.00;98619.59;4999478;28;20441;-79
2024/01/12 05:34:38;;;;;;;57.03;28.33;;;;;;;-8.98;100.00;98618.75;4992450;28;20407;-79
2024/01/12 05:37:04;;;;;;;59.30;30.45;;;;;;;-8.98;100.00;98611.06;4974469;28;20416;-78
2024/01/12 05:39:30;;;;;;;60.03;30.48;;;;;;;-8.98;100.00;98607.69;4978330;28;20400;-78
2024/01/12 05:41:56;;;;;;;57.30;29.15;;;;;;;-8.98;100.00;98608.50;4979959;28;20940;-77
2024/01/12 05:44:23;;;;;;;55.05;28.77;;;;;;;-8.98;100.00;98605.09;4979180;28;20409;-78
2024/01/12 05:46:50;;;;;;;52.97;27.63;;;;;;;-9.00;100.00;98598.31;4977398;28;20412;-79
2024/01/12 05:49:16;;;;;;;56.38;28.02;;;;;;;-8.98;100.00;98599.97;4978231;28;20405;-78
2024/01/12 05:51:42;;;;;;;61.75;30.23;;;;;;;-8.98;100.00;98597.41;5004757;28;20504;-78
2024/01/12 05:54:08;;;;;;;53.13;27.10;;;;;;;-8.98;100.00;98592.28;4983675;28;20508;-79
2024/01/12 05:56:35;;;;;;;45.70;24.80;;;;;;;-9.00;100.00;98598.31;5000641;28;20438;-78
2024/01/12 05:59:01;;;;;;;52.40;26.88;;;;;;;-9.01;100.00;98591.56;5003570;28;20407;-78
2024/01/12 06:01:27;;;;;;;45.65;24.13;;;;;;;-9.02;100.00;98605.28;5004431;28;20449;-79
2024/01/12 06:03:56;;;;;;;48.42;25.42;;;;;;;-9.04;100.00;98601.19;4998824;28;20406;-79
2024/01/12 06:06:24;;;;;;;49.88;24.65;;;;;;;-9.05;100.00;98595.25;4996738;28;20449;-78
2024/01/12 06:08:50;;;;;;;48.30;25.40;;;;;;;-9.06;100.00;98596.16;4997706;28;20402;-78
2024/01/12 06:11:17;;;;;;;51.10;25.65;;;;;;;-9.07;100.00;98591.97;4994921;28;20407;-78
2024/01/12 06:13:43;;;;;;;53.75;28.10;;;;;;;-9.09;100.00;98585.28;4996031;28;20486;-79
2024/01/12 06:16:09;;;;;;;49.92;26.13;;;;;;;-9.10;100.00;98587.03;4995822;28;20395;-78
2024/01/12 06:18:35;;;;;;;50.72;26.85;;;;;;;-9.10;100.00;98588.78;4995843;28;20457;-79
2024/01/12 06:21:03;;;;;;;49.73;24.90;;;;;;;-9.11;100.00;98592.25;4996293;28;20449;-79
2024/01/12 06:23:29;;;;;;;47.80;24.70;;;;;;;-9.13;100.00;98592.34;4990376;28;20402;-77
2024/01/12 06:25:55;;;;;;;47.73;24.90;;;;;;;-9.13;100.00;98599.22;4991791;28;20601;-77
2024/01/12 06:28:21;;;;;;;48.50;24.88;;;;;;;-9.15;100.00;98606.19;4994684;28;20892;-79
2024/01/12 06:30:47;;;;;;;44.72;23.92;;;;;;;-9.18;100.00;98603.84;4994564;28;20895;-79
2024/01/12 06:33:16;;;;;;;57.55;30.20;;;;;;;-9.17;100.00;98597.78;4995731;28;20476;-79
2024/01/12 06:35:42;;;;;;;51.38;27.10;;;;;;;-9.18;100.00;98593.59;4994558;28;20415;-79
2024/01/12 06:38:10;;;;;;;53.30;28.23;;;;;;;-9.18;100.00;98591.84;4993960;28;20803;-78
2024/01/12 06:40:37;;;;;;;55.03;28.70;;;;;;;-9.21;100.00;98589.47;4993790;28;20402;-78
2024/01/12 06:43:03;;;;;;;48.55;26.65;;;;;;;-9.21;100.00;98591.19;4994974;28;20914;-78
2024/01/12 06:45:29;;;;;;;49.03;25.88;;;;;;;-9.23;100.00;98581.03;4993309;28;20807;-77
2024/01/12 06:47:55;;;;;;;49.58;27.38;;;;;;;-9.25;100.00;98585.47;4994512;28;20946;-77
2024/01/12 06:50:21;;;;;;;51.20;28.07;;;;;;;-9.25;100.00;98594.91;4993417;28;20537;-77
2024/01/12 06:52:48;;;;;;;51.08;27.15;;;;;;;-9.26;100.00;98590.69;4995815;28;20780;-77
2024/01/12 06:55:15;;;;;;;60.95;30.75;;;;;;;-9.28;100.00;98593.34;4994240;28;20413;-78
2024/01/12 06:57:43;;;;;;;51.95;26.73;;;;;;;-9.28;100.00;98587.38;4997401;28;20409;-79
2024/01/12 07:00:10;;;;;;;51.30;26.42;;;;;;;-9.28;100.00;98582.25;4998658;28;20398;-79
2024/01/12 07:02:36;;;;;;;53.33;27.60;;;;;;;-9.30;100.00;98581.53;4990909;28;20514;-77
2024/01/12 07:05:03;;;;;;;50.80;26.83;;;;;;;-9.31;100.00;98573.00;4985580;28;20477;-78
2024/01/12 07:07:29;;;;;;;48.13;25.02;;;;;;;-9.33;100.00;98585.13;4983048;28;20501;-77
2024/01/12 07:09:56;;;;;;;46.40;24.85;;;;;;;-9.33;100.00;98590.25;4985872;28;20478;-77
2024/01/12 07:12:23;;;;;;;44.87;24.10;;;;;;;-9.35;100.00;98589.53;4986162;28;20533;-77
2024/01/12 07:14:50;;;;;;;52.08;26.25;;;;;;;-9.35;100.00;98594.66;4985948;28;20442;-77
2024/01/12 07:17:16;;;;;;;56.05;29.05;;;;;;;-9.34;100.00;98590.34;4986574;28;20404;-79
2024/01/12 07:19:43;;;;;;;57.13;28.80;;;;;;;-9.33;100.00;98595.38;4997975;28;20764;-79
2024/01/12 07:22:09;;;;;;;58.50;28.50;;;;;;;-9.32;100.00;98591.09;4997991;28;20430;-79
2024/01/12 07:24:36;;;;;;;53.97;28.60;;;;;;;-9.30;100.00;98589.22;4998587;28;20695;-79
2024/01/12 07:27:02;;;;;;;54.17;26.92;;;;;;;-9.29;100.00;98589.13;4997884;28;20465;-78
2024/01/12 07:29:29;;;;;;;52.92;27.77;;;;;;;-9.27;100.00;98597.56;4998555;28;20836;-80
2024/01/12 07:31:58;;;;;;;50.42;26.95;;;;;;;-9.26;100.00;98601.75;4998401;28;20489;-79
2024/01/12 07:34:24;;;;;;;54.88;28.00;;;;;;;-9.26;100.00;98596.63;4998329;28;20406;-79
2024/01/12 07:36:50;;;;;;;51.60;25.90;;;;;;;-9.24;100.00;98599.91;4998884;28;20949;-80
2024/01/12 07:39:16;;;;;;;51.10;26.50;;;;;;;-9.23;100.00;98605.84;4997034;28;20402;-80
2024/01/12 07:41:43;;;;;;;53.05;27.33;;;;;;;-9.21;100.00;98606.59;4996645;28;20411;-79
2024/01/12 07:44:11;;;;;;;52.65;27.15;;;;;;;-9.19;100.00;98607.31;4996697;28;20497;-77
2024/01/12 07:46:39;;;;;;;52.15;26.25;;;;;;;-9.17;100.00;98601.16;4997428;28;20407;-78
2024/01/12 07:49:05;;;;;;;48.17;25.83;;;;;;;-9.14;100.00;98603.53;4996132;28;20457;-78
2024/01/12 07:51:31;;;;;;;43.05;23.55;;;;;;;-9.12;100.00;98606.81;4996741;28;20414;-78
2024/01/12 07:53:57;;;;;;;52.97;27.67;;;;;;;-9.09;100.00;98624.56;4996953;28;20406;-79
2024/01/12 07:56:23;;;;;;;50.15;25.40;;;;;;;-9.07;100.00;98629.59;4998149;28;20729;-79
2024/01/12 07:58:49;;;;;;;46.60;24.70;;;;;;;-9.06;100.00;98621.81;4998132;28;20481;-79
2024/01/12 08:01:17;;;;;;;47.47;25.05;;;;;;;-9.01;100.00;98629.19;4998206;28;20422;-79
2024/01/12 08:03:45;;;;;;;46.20;25.58;;;;;;;-9.00;100.00;98631.69;4997306;28;20430;-78
2024/01/12 08:06:11;;;;;;;47.75;24.90;;;;;;;-8.97;100.00;98629.84;4998393;28;20402;-79
2024/01/12 08:08:37;;;;;;;43.03;22.88;;;;;;;-8.94;100.00;98625.31;4997381;28;20518;-79
2024/01/12 08:11:04;;;;;;;45.30;23.33;;;;;;;-8.91;100.00;98624.31;4998104;28;20405;-79
2024/01/12 08:13:30;;;;;;;49.03;26.58;;;;;;;-8.86;100.00;98624.81;4999225;28;20490;-78
2024/01/12 08:15:57;;;;;;;48.50;26.17;;;;;;;-8.82;100.00;98628.84;4998995;28;20406;-79
2024/01/12 08:18:23;;;;;;;50.67;25.35;;;;;;;-8.78;100.00;98625.97;5004036;28;20433;-79
2024/01/12 08:20:50;;;;;;;46.03;24.27;;;;;;;-8.72;100.00;98623.00;5004908;28;20410;-78
2024/01/12 08:23:16;;;;;;;51.90;28.65;;;;;;;-8.68;100.00;98626.19;4999317;28;20422;-79
2024/01/12 08:25:43;;;;;;;52.97;28.38;;;;;;;-8.63;100.00;98621.56;4997879;28;20402;-79
2024/01/12 08:28:09;;;;;;;52.15;27.55;;;;;;;-8.58;100.00;98632.38;4997727;28;20402;-79
2024/01/12 08:30:35;;;;;;;52.67;27.60;;;;;;;-8.53;100.00;98644.91;4996997;28;20442;-78
2024/01/12 08:33:01;;;;;;;44.88;24.88;;;;;;;-8.50;100.00;98654.97;4997200;28;20402;-79
2024/01/12 08:35:28;;;;;;;47.58;25.17;;;;;;;-8.46;100.00;98669.25;4998395;28;20403;-79
2024/01/12 08:37:55;;;;;;;47.85;25.70;;;;;;;-8.40;100.00;98661.13;4996142;28;20403;-80
2024/01/12 08:40:21;;;;;;;50.00;28.23;;;;;;;-8.34;100.00;98671.81;4996900;28;20470;-79
2024/01/12 08:42:48;;;;;;;50.35;27.92;;;;;;;-8.27;100.00;98670.44;4997501;28;20414;-76
2024/01/12 08:45:14;;;;;;;49.38;27.98;;;;;;;-8.19;100.00;98679.44;4996977;28;20922;-78
2024/01/12 08:47:41;;;;;;;48.20;26.47;;;;;;;-8.12;100.00;98685.78;4997702;28;20419;-79
2024/01/12 08:50:07;;;;;;;53.42;28.90;;;;;;;-8.05;100.00;98684.47;4997963;28;20402;-79
2024/01/12 08:52:33;;;;;;;50.53;27.15;;;;;;;-7.98;100.00;98677.97;4996853;28;20627;-79
2024/01/12 08:55:03;;;;;;;54.63;28.77;;;;;;;-7.90;100.00;98679.09;4997134;28;20494;-79
2024/01/12 08:57:29;;;;;;;54.33;28.45;;;;;;;-7.84;100.00;98673.56;4997136;28;20871;-78
2024/01/12 08:59:55;;;;;;;54.05;29.63;;;;;;;-7.76;100.00;98682.47;4994533;28;20411;-79
2024/01/12 09:02:23;;;;;;;59.97;32.70;;;;;;;-7.69;100.00;98689.66;4995556;28;20474;-79
2024/01/12 09:04:51;;;;;;;63.43;34.03;;;;;;;-7.63;100.00;98686.69;4977524;28;20440;-78
2024/01/12 09:07:17;;;;;;;67.65;35.53;;;;;;;-7.55;100.00;98686.97;4976228;28;20495;-78
2024/01/12 09:09:44;;;;;;;67.43;36.38;;;;;;;-7.49;100.00;98685.72;4976491;28;20396;-77
2024/01/12 09:12:12;;;;;;;70.53;37.00;;;;;;;-7.41;100.00;98688.59;4977279;28;20788;-78
2024/01/12 09:14:38;;;;;;;67.03;35.65;;;;;;;-7.33;100.00;98696.59;4979187;28;20404;-78
2024/01/12 09:17:04;;;;;;;71.43;38.50;;;;;;;-7.25;100.00;98688.34;4976854;28;20408;-77
2024/01/12 09:19:32;;;;;;;69.55;37.65;;;;;;;-7.19;100.00;98688.72;4975554;28;20443;-78
2024/01/12 09:21:58;;;;;;;75.60;40.47;;;;;;;-7.11;100.00;98695.91;4977087;28;20463;-78
2024/01/12 09:24:24;;;;;;;75.17;39.93;;;;;;;-7.03;100.00;98691.03;4977020;28;20420;-79
2024/01/12 09:26:50;;;;;;;79.03;41.95;;;;;;;-6.95;100.00;98695.63;4975949;28;20408;-78
2024/01/12 09:29:18;;;;;;;76.47;40.97;;;;;;;-6.88;100.00;98697.66;4976867;28;20408;-79
2024/01/12 09:31:44;;;;;;;78.95;43.42;;;;;;;-6.81;100.00;98701.44;4977886;28;20436;-80
2024/01/12 09:34:10;;;;;;;74.43;41.53;;;;;;;-6.71;100.00;98696.47;4980240;28;20885;-80
2024/01/12 09:36:43;;;;;;;80.82;42.15;;;;;;;-6.63;100.00;98703.63;4985303;28;20404;-79
2024/01/12 09:39:14;;;;;;;80.32;43.00;;;;;;;-6.55;100.00;98698.75;4978908;28;20415;-78
2024/01/12 09:41:49;;;;;;;79.45;45.42;;;;;;;-6.44;100.00;98706.50;4976713;28;20614;-78
2024/01/12 09:44:26;;;;;;;76.63;42.58;;;;;;;-6.35;100.00;98710.97;4976804;28;20395;-78
2024/01/12 09:46:56;;;;;;;76.45;44.05;;;;;;;-6.20;100.00;98709.03;4976268;28;20794;-78
2024/01/12 09:49:23;;;;;;;76.28;43.72;;;;;;;-6.09;100.00;98706.50;4976149;28;20396;-78
2024/01/12 09:51:49;;;;;;;73.03;43.00;;;;;;;-5.95;100.00;98706.28;4975684;28;20420;-78
2024/01/12 09:54:18;;;;;;;69.82;41.38;;;;;;;-5.80;100.00;98706.84;4976465;28;20415;-79
2024/01/12 09:56:45;;;;;;;69.22;41.22;;;;;;;-5.64;100.00;98702.16;4977486;28;20447;-79
2024/01/12 09:59:14;;;;;;;62.72;38.60;;;;;;;-5.31;100.00;98707.31;4978655;28;20396;-78
2024/01/12 10:01:42;;;;;;;58.65;36.92;;;;;;;-4.44;100.00;98708.97;4975776;28;20436;-78
2024/01/12 10:04:08;;;;;;;53.72;33.90;;;;;;;-3.31;100.00;98710.69;4975416;28;20816;-78
2024/01/12 10:06:35;;;;;;;48.42;30.52;;;;;;;-2.29;100.00;98700.84;4975529;28;20404;-79
2024/01/12 10:09:01;;;;;;;44.57;28.77;;;;;;;-1.40;100.00;98694.34;4975622;28;20401;-78
2024/01/12 10:11:28;;;;;;;40.67;27.40;;;;;;;-0.65;100.00;98691.44;4976433;28;20956;-80
2024/01/12 10:13:54;;;;;;;40.63;26.67;;;;;;;0.00;100.00;98684.19;4976167;28;20409;-78
2024/01/12 10:16:28;;;;;;;40.70;26.85;;;;;;;0.56;100.00;98680.28;4974154;28;20463;-78
2024/01/12 10:18:56;;;;;;;42.28;25.85;;;;;;;1.09;100.00;98691.22;4974151;28;20407;-78
2024/01/12 10:21:23;;;;;;;37.70;24.77;;;;;;;1.56;100.00;98685.44;4974065;28;20420;-78
2024/01/12 10:23:49;;;;;;;36.10;25.00;;;;;;;1.94;100.00;98679.59;4974961;28;20515;-78
2024/01/12 10:26:18;;;;;;;36.30;24.65;;;;;;;2.28;100.00;98678.53;4975669;28;20403;-79
2024/01/12 10:28:45;;;;;;;36.17;25.55;;;;;;;2.61;100.00;98677.47;4975778;28;20428;-81
2024/01/12 10:31:11;;;;;;;40.40;26.55;;;;;;;2.91;100.00;98670.66;4976112;28;20866;-78
2024/01/12 10:33:40;;;;;;;39.75;24.95;;;;;;;3.14;100.00;98662.03;4979767;28;20479;-78
2024/01/12 10:36:14;;;;;;;36.55;24.15;;;;;;;3.44;100.00;98656.78;4980305;28;20443;-79
2024/01/12 10:38:44;;;;;;;39.28;25.30;;;;;;;3.64;100.00;98659.72;4984179;28;20415;-80
2024/01/12 10:41:11;;;;;;;37.10;24.33;;;;;;;3.84;100.00;98649.56;4996637;28;20402;-80
2024/01/12 10:43:38;;;;;;;37.42;24.25;;;;;;;3.99;100.00;98641.75;5006618;28;20394;-79
2024/01/12 10:46:10;;;;;;;36.17;23.52;;;;;;;4.16;100.00;98635.34;5003270;28;20394;-79
2024/01/12 10:48:45;;;;;;;34.92;23.70;;;;;;;4.31;100.00;98630.94;5003240;28;20462;-78
2024/01/12 10:51:18;;;;;;;40.42;24.98;;;;;;;4.45;100.00;98637.16;5005736;28;20922;-78
2024/01/12 10:53:53;;;;;;;37.92;24.05;;;;;;;4.56;100.00;98636.72;5004074;28;20479;-80
2024/01/12 10:56:21;;;;;;;41.42;25.30;;;;;;;4.66;100.00;98626.78;5001935;28;20884;-79
2024/01/12 10:58:50;;;;;;;36.58;23.33;;;;;;;4.74;100.00;98620.59;5003575;28;20441;-80
2024/01/12 11:01:18;;;;;;;35.57;22.90;;;;;;;4.79;100.00;98626.94;5017161;28;20494;-77
2024/01/12 11:03:46;;;;;;;35.95;23.80;;;;;;;4.79;100.00;98626.13;5004380;28;20429;-79
2024/01/12 11:06:17;;;;;;;42.42;26.88;;;;;;;4.77;100.00;98633.34;5012278;28;20401;-80
2024/01/12 11:08:46;;;;;;;39.50;25.13;;;;;;;4.75;100.00;98630.91;5019050;28;20397;-79